sensor_id;sensor_type;location;lat;lon;timestamp;pressure;altitude;pressure_sealevel;temperature;humidity
48077;BME280;33854;57.708;12.008;2022-07-22T00:01:12;102285.31;;;19.13;100.00
48077;BME280;33854;57.708;12.008;2022-07-22T00:03:37;102265.72;;;19.02;100.00
48077;BME280;33854;57.708;12.008;2022-07-22T00:06:03;102275.94;;;19.08;100.00
48077;BME280;33854;57.708;12.008;2022-07-22T00:08:28;102275.09;;;19.07;100.00
48077;BME280;33854;57.708;12.008;2022-07-22T00:10:54;102282.75;;;19.12;100.00
48077;BME280;33854;57.708;12.008;2022-07-22T00:13:19;102259.38;;;19.04;100.00
48077;BME280;33854;57.708;12.008;2022-07-22T00:15:44;102278.91;;;19.17;100.00
48077;BME280;33854;57.708;12.008;2022-07-22T00:18:10;102282.22;;;19.21;100.00
48077;BME280;33854;57.708;12.008;2022-07-22T00:20:35;102266.63;;;19.16;100.00
48077;BME280;33854;57.708;12.008;2022-07-22T00:23:01;102275.16;;;19.21;100.00
48077;BME280;33854;57.708;12.008;2022-07-22T00:25:26;102270.03;;;19.18;100.00
48077;BME280;33854;57.708;12.008;2022-07-22T00:27:54;102267.56;;;19.15;100.00
48077;BME280;33854;57.708;12.008;2022-07-22T00:30:19;102298.09;;;19.37;100.00
48077;BME280;33854;57.708;12.008;2022-07-22T00:32:44;102300.06;;;19.33;100.00
48077;BME280;33854;57.708;12.008;2022-07-22T00:35:10;102304.00;;;19.42;100.00
48077;BME280;33854;57.708;12.008;2022-07-22T00:37:35;102302.38;;;19.39;100.00
48077;BME280;33854;57.708;12.008;2022-07-22T00:40:01;102309.97;;;19.45;100.00
48077;BME280;33854;57.708;12.008;2022-07-22T00:42:27;102301.59;;;19.37;100.00
48077;BME280;33854;57.708;12.008;2022-07-22T00:44:52;102311.22;;;19.38;100.00
48077;BME280;33854;57.708;12.008;2022-07-22T00:47:18;102332.59;;;19.51;100.00
48077;BME280;33854;57.708;12.008;2022-07-22T00:49:43;102307.56;;;19.41;100.00
48077;BME280;33854;57.708;12.008;2022-07-22T00:52:09;102325.41;;;19.53;100.00
48077;BME280;33854;57.708;12.008;2022-07-22T00:54:36;102331.28;;;19.58;100.00
48077;BME280;33854;57.708;12.008;2022-07-22T00:57:02;102322.13;;;19.63;100.00
48077;BME280;33854;57.708;12.008;2022-07-22T00:59:27;102317.78;;;19.62;100.00
48077;BME280;33854;57.708;12.008;2022-07-22T01:01:53;102309.66;;;19.65;100.00
48077;BME280;33854;57.708;12.008;2022-07-22T01:04:18;102299.91;;;19.66;100.00
48077;BME280;33854;57.708;12.008;2022-07-22T01:06:44;102306.84;;;19.68;100.00
48077;BME280;33854;57.708;12.008;2022-07-22T01:09:10;102287.13;;;19.58;100.00
48077;BME280;33854;57.708;12.008;2022-07-22T01:11:36;102305.88;;;19.69;100.00
48077;BME280;33854;57.708;12.008;2022-07-22T01:14:02;102308.44;;;19.71;100.00
48077;BME280;33854;57.708;12.008;2022-07-22T01:16:28;102301.44;;;19.70;100.00
48077;BME280;33854;57.708;12.008;2022-07-22T01:18:53;102302.09;;;19.73;100.00
48077;BME280;33854;57.708;12.008;2022-07-22T01:21:19;102288.47;;;19.65;100.00
48077;BME280;33854;57.708;12.008;2022-07-22T01:23:45;102307.91;;;19.80;100.00
48077;BME280;33854;57.708;12.008;2022-07-22T01:26:11;102304.41;;;19.79;100.00
48077;BME280;33854;57.708;12.008;2022-07-22T01:28:37;102288.28;;;19.68;100.00
48077;BME280;33854;57.708;12.008;2022-07-22T01:31:03;102307.13;;;19.78;100.00
48077;BME280;33854;57.708;12.008;2022-07-22T01:33:28;102312.22;;;19.81;100.00
48077;BME280;33854;57.708;12.008;2022-07-22T01:35:54;102313.03;;;19.83;100.00
48077;BME280;33854;57.708;12.008;2022-07-22T01:38:19;102294.41;;;19.69;100.00
48077;BME280;33854;57.708;12.008;2022-07-22T01:40:45;102312.22;;;19.81;100.00
48077;BME280;33854;57.708;12.008;2022-07-22T01:43:11;102316.78;;;19.79;100.00
48077;BME280;33854;57.708;12.008;2022-07-22T01:45:36;102329.53;;;19.72;100.00
48077;BME280;33854;57.708;12.008;2022-07-22T01:48:03;102328.38;;;19.62;100.00
48077;BME280;33854;57.708;12.008;2022-07-22T01:50:28;102339.22;;;19.58;100.00
48077;BME280;33854;57.708;12.008;2022-07-22T01:52:54;102351.53;;;19.59;100.00
48077;BME280;33854;57.708;12.008;2022-07-22T01:55:20;102352.16;;;19.48;100.00
48077;BME280;33854;57.708;12.008;2022-07-22T01:57:45;102361.31;;;19.43;100.00
48077;BME280;33854;57.708;12.008;2022-07-22T02:00:12;102335.91;;;19.23;100.00
48077;BME280;33854;57.708;12.008;2022-07-22T02:02:37;102356.41;;;19.35;100.00
48077;BME280;33854;57.708;12.008;2022-07-22T02:05:04;102351.22;;;19.33;100.00
48077;BME280;33854;57.708;12.008;2022-07-22T02:07:31;102329.63;;;19.25;100.00
48077;BME280;33854;57.708;12.008;2022-07-22T02:09:57;102323.53;;;19.23;100.00
48077;BME280;33854;57.708;12.008;2022-07-22T02:12:22;102290.78;;;19.10;100.00
48077;BME280;33854;57.708;12.008;2022-07-22T02:14:48;102301.09;;;19.15;100.00
48077;BME280;33854;57.708;12.008;2022-07-22T02:17:13;102287.13;;;19.13;100.00
48077;BME280;33854;57.708;12.008;2022-07-22T02:19:39;102287.13;;;19.13;100.00
48077;BME280;33854;57.708;12.008;2022-07-22T02:22:05;102277.63;;;19.09;100.00
48077;BME280;33854;57.708;12.008;2022-07-22T02:24:31;102262.78;;;19.06;100.00
48077;BME280;33854;57.708;12.008;2022-07-22T02:26:57;102255.13;;;19.02;100.00
48077;BME280;33854;57.708;12.008;2022-07-22T02:29:22;102253.59;;;18.98;100.00
48077;BME280;33854;57.708;12.008;2022-07-22T02:31:47;102216.06;;;18.75;100.00
48077;BME280;33854;57.708;12.008;2022-07-22T02:34:13;102208.22;;;18.74;100.00
48077;BME280;33854;57.708;12.008;2022-07-22T02:36:39;102231.44;;;18.85;100.00
48077;BME280;33854;57.708;12.008;2022-07-22T02:39:04;102217.09;;;18.73;100.00
48077;BME280;33854;57.708;12.008;2022-07-22T02:41:30;102231.25;;;18.88;100.00
48077;BME280;33854;57.708;12.008;2022-07-22T02:43:55;102224.94;;;18.90;100.00
48077;BME280;33854;57.708;12.008;2022-07-22T02:46:22;102220.84;;;18.85;100.00
48077;BME280;33854;57.708;12.008;2022-07-22T02:48:47;102200.19;;;18.75;100.00
48077;BME280;33854;57.708;12.008;2022-07-22T02:51:13;102202.41;;;18.83;100.00
48077;BME280;33854;57.708;12.008;2022-07-22T02:53:38;102192.59;;;18.85;100.00
48077;BME280;33854;57.708;12.008;2022-07-22T02:56:04;102183.88;;;18.83;100.00
48077;BME280;33854;57.708;12.008;2022-07-22T02:58:30;102153.28;;;18.79;100.00
48077;BME280;33854;57.708;12.008;2022-07-22T03:00:55;102159.91;;;18.86;100.00
48077;BME280;33854;57.708;12.008;2022-07-22T03:03:20;102157.09;;;18.89;100.00
48077;BME280;33854;57.708;12.008;2022-07-22T03:05:46;102116.25;;;18.79;100.00
48077;BME280;33854;57.708;12.008;2022-07-22T03:08:12;102106.44;;;18.81;100.00
48077;BME280;33854;57.708;12.008;2022-07-22T03:10:37;102101.88;;;18.83;100.00
48077;BME280;33854;57.708;12.008;2022-07-22T03:13:03;102072.75;;;18.69;100.00
48077;BME280;33854;57.708;12.008;2022-07-22T03:15:28;102077.69;;;18.75;100.00
48077;BME280;33854;57.708;12.008;2022-07-22T03:17:53;102057.69;;;18.71;100.00
48077;BME280;33854;57.708;12.008;2022-07-22T03:20:19;102062.69;;;18.75;100.00
48077;BME280;33854;57.708;12.008;2022-07-22T03:22:44;102047.09;;;18.71;100.00
48077;BME280;33854;57.708;12.008;2022-07-22T03:25:10;102048.41;;;18.78;100.00
48077;BME280;33854;57.708;12.008;2022-07-22T03:27:36;102033.09;;;18.69;100.00
48077;BME280;33854;57.708;12.008;2022-07-22T03:30:03;102026.78;;;18.71;100.00
48077;BME280;33854;57.708;12.008;2022-07-22T03:32:28;102022.44;;;18.70;100.00
48077;BME280;33854;57.708;12.008;2022-07-22T03:34:54;102012.13;;;18.66;100.00
48077;BME280;33854;57.708;12.008;2022-07-22T03:37:19;102022.63;;;18.67;100.00
48077;BME280;33854;57.708;12.008;2022-07-22T03:39:45;102014.69;;;18.67;100.00
48077;BME280;33854;57.708;12.008;2022-07-22T03:42:10;102019.13;;;18.67;100.00
48077;BME280;33854;57.708;12.008;2022-07-22T03:44:35;102015.56;;;18.68;100.00
48077;BME280;33854;57.708;12.008;2022-07-22T03:47:01;102011.19;;;18.67;100.00
48077;BME280;33854;57.708;12.008;2022-07-22T03:49:26;102008.72;;;18.64;100.00
48077;BME280;33854;57.708;12.008;2022-07-22T03:51:54;101987.19;;;18.56;100.00
48077;BME280;33854;57.708;12.008;2022-07-22T03:54:20;101985.66;;;18.52;100.00
48077;BME280;33854;57.708;12.008;2022-07-22T03:56:45;101969.38;;;18.44;100.00
48077;BME280;33854;57.708;12.008;2022-07-22T03:59:11;101968.94;;;18.51;100.00
48077;BME280;33854;57.708;12.008;2022-07-22T04:01:36;101940.94;;;18.33;100.00
48077;BME280;33854;57.708;12.008;2022-07-22T04:04:02;101956.16;;;18.44;100.00
48077;BME280;33854;57.708;12.008;2022-07-22T04:06:27;101953.94;;;18.52;100.00
48077;BME280;33854;57.708;12.008;2022-07-22T04:08:52;101947.03;;;18.49;100.00
48077;BME280;33854;57.708;12.008;2022-07-22T04:11:20;101915.38;;;18.34;100.00
48077;BME280;33854;57.708;12.008;2022-07-22T04:13:45;101936.38;;;18.51;100.00
48077;BME280;33854;57.708;12.008;2022-07-22T04:16:11;101921.03;;;18.42;100.00
48077;BME280;33854;57.708;12.008;2022-07-22T04:18:36;101896.00;;;18.33;100.00
48077;BME280;33854;57.708;12.008;2022-07-22T04:21:01;101882.63;;;18.36;100.00
48077;BME280;33854;57.708;12.008;2022-07-22T04:23:27;101901.91;;;18.52;100.00
48077;BME280;33854;57.708;12.008;2022-07-22T04:25:52;101888.28;;;18.44;100.00
48077;BME280;33854;57.708;12.008;2022-07-22T04:28:18;101877.03;;;18.41;100.00
48077;BME280;33854;57.708;12.008;2022-07-22T04:30:43;101885.38;;;18.49;100.00
48077;BME280;33854;57.708;12.008;2022-07-22T04:33:09;101879.25;;;18.48;100.00
48077;BME280;33854;57.708;12.008;2022-07-22T04:35:34;101866.03;;;18.48;100.00
48077;BME280;33854;57.708;12.008;2022-07-22T04:37:59;101869.44;;;18.50;100.00
48077;BME280;33854;57.708;12.008;2022-07-22T04:40:25;101846.25;;;18.40;100.00
48077;BME280;33854;57.708;12.008;2022-07-22T04:42:51;101858.75;;;18.52;100.00
48077;BME280;33854;57.708;12.008;2022-07-22T04:45:16;101845.13;;;18.44;100.00
48077;BME280;33854;57.708;12.008;2022-07-22T04:47:42;101858.88;;;18.50;100.00
48077;BME280;33854;57.708;12.008;2022-07-22T04:50:07;101832.84;;;18.43;100.00
48077;BME280;33854;57.708;12.008;2022-07-22T04:52:36;101843.44;;;18.43;100.00
48077;BME280;33854;57.708;12.008;2022-07-22T04:55:02;101819.25;;;18.35;100.00
48077;BME280;33854;57.708;12.008;2022-07-22T04:57:28;101818.88;;;18.27;100.00
48077;BME280;33854;57.708;12.008;2022-07-22T04:59:53;101831.00;;;18.31;100.00
48077;BME280;33854;57.708;12.008;2022-07-22T05:02:19;101843.34;;;18.30;100.00
48077;BME280;33854;57.708;12.008;2022-07-22T05:04:45;101838.06;;;18.30;100.00
48077;BME280;33854;57.708;12.008;2022-07-22T05:07:10;101842.66;;;18.27;100.00
48077;BME280;33854;57.708;12.008;2022-07-22T05:09:36;101848.13;;;18.23;100.00
48077;BME280;33854;57.708;12.008;2022-07-22T05:12:03;101843.78;;;18.22;100.00
48077;BME280;33854;57.708;12.008;2022-07-22T05:14:28;101825.38;;;18.07;100.00
48077;BME280;33854;57.708;12.008;2022-07-22T05:16:54;101820.94;;;18.07;100.00
48077;BME280;33854;57.708;12.008;2022-07-22T05:19:19;101844.56;;;18.25;100.00
48077;BME280;33854;57.708;12.008;2022-07-22T05:21:45;101845.97;;;18.30;100.00
48077;BME280;33854;57.708;12.008;2022-07-22T05:24:11;101841.75;;;18.28;100.00
48077;BME280;33854;57.708;12.008;2022-07-22T05:26:37;101835.84;;;18.22;100.00
48077;BME280;33854;57.708;12.008;2022-07-22T05:29:02;101836.63;;;18.25;100.00
48077;BME280;33854;57.708;12.008;2022-07-22T05:31:28;101840.88;;;18.27;100.00
48077;BME280;33854;57.708;12.008;2022-07-22T05:33:53;101819.91;;;18.10;100.00
48077;BME280;33854;57.708;12.008;2022-07-22T05:36:19;101849.66;;;18.13;100.00
48077;BME280;33854;57.708;12.008;2022-07-22T05:38:44;101839.88;;;18.00;100.00
48077;BME280;33854;57.708;12.008;2022-07-22T05:43:38;101858.84;;;17.92;100.00
48077;BME280;33854;57.708;12.008;2022-07-22T05:46:04;101880.28;;;18.02;100.00
48077;BME280;33854;57.708;12.008;2022-07-22T05:48:29;101886.56;;;17.99;100.00
48077;BME280;33854;57.708;12.008;2022-07-22T05:50:54;101885.91;;;17.96;100.00
48077;BME280;33854;57.708;12.008;2022-07-22T05:53:20;101903.94;;;18.03;100.00
48077;BME280;33854;57.708;12.008;2022-07-22T05:55:46;101913.41;;;18.07;100.00
48077;BME280;33854;57.708;12.008;2022-07-22T05:58:11;101922.66;;;18.14;100.00
48077;BME280;33854;57.708;12.008;2022-07-22T06:00:37;101918.16;;;18.16;100.00
48077;BME280;33854;57.708;12.008;2022-07-22T06:03:02;101933.91;;;18.18;100.00
48077;BME280;33854;57.708;12.008;2022-07-22T06:05:27;101942.41;;;18.23;100.00
48077;BME280;33854;57.708;12.008;2022-07-22T06:07:53;101944.38;;;18.19;100.00
48077;BME280;33854;57.708;12.008;2022-07-22T06:10:18;101933.81;;;18.19;100.00
48077;BME280;33854;57.708;12.008;2022-07-22T06:12:44;101928.72;;;18.16;100.00
48077;BME280;33854;57.708;12.008;2022-07-22T06:15:09;101934.00;;;18.16;100.00
48077;BME280;33854;57.708;12.008;2022-07-22T06:17:35;101937.81;;;18.27;100.00
48077;BME280;33854;57.708;12.008;2022-07-22T06:20:01;101938.13;;;18.36;100.00
48077;BME280;33854;57.708;12.008;2022-07-22T06:22:26;101922.25;;;18.36;100.00
48077;BME280;33854;57.708;12.008;2022-07-22T06:24:52;101933.28;;;18.43;100.00
48077;BME280;33854;57.708;12.008;2022-07-22T06:27:18;101923.00;;;18.38;100.00
48077;BME280;33854;57.708;12.008;2022-07-22T06:29:44;101921.59;;;18.33;100.00
48077;BME280;33854;57.708;12.008;2022-07-22T06:32:09;101917.91;;;18.35;100.00
48077;BME280;33854;57.708;12.008;2022-07-22T06:34:34;101904.50;;;18.38;100.00
48077;BME280;33854;57.708;12.008;2022-07-22T06:37:00;101896.59;;;18.38;100.00
48077;BME280;33854;57.708;12.008;2022-07-22T06:39:25;101901.91;;;18.52;100.00
48077;BME280;33854;57.708;12.008;2022-07-22T06:41:51;101900.19;;;18.51;100.00
48077;BME280;33854;57.708;12.008;2022-07-22T06:44:16;101891.34;;;18.52;100.00
48077;BME280;33854;57.708;12.008;2022-07-22T06:46:42;101887.94;;;18.50;100.00
48077;BME280;33854;57.708;12.008;2022-07-22T06:49:07;101887.09;;;18.50;100.00
48077;BME280;33854;57.708;12.008;2022-07-22T06:51:33;101873.34;;;18.43;100.00
48077;BME280;33854;57.708;12.008;2022-07-22T06:53:59;101868.25;;;18.40;100.00
48077;BME280;33854;57.708;12.008;2022-07-22T06:56:25;101866.75;;;18.36;100.00
48077;BME280;33854;57.708;12.008;2022-07-22T06:58:50;101870.03;;;18.40;100.00
48077;BME280;33854;57.708;12.008;2022-07-22T07:01:15;101864.75;;;18.40;100.00
48077;BME280;33854;57.708;12.008;2022-07-22T07:03:41;101863.75;;;18.42;100.00
48077;BME280;33854;57.708;12.008;2022-07-22T07:06:08;101869.84;;;18.43;100.00
48077;BME280;33854;57.708;12.008;2022-07-22T07:08:36;101861.94;;;18.43;100.00
48077;BME280;33854;57.708;12.008;2022-07-22T07:11:02;101859.72;;;18.51;100.00
48077;BME280;33854;57.708;12.008;2022-07-22T07:13:27;101856.03;;;18.53;100.00
48077;BME280;33854;57.708;12.008;2022-07-22T07:15:52;101856.97;;;18.52;100.00
48077;BME280;33854;57.708;12.008;2022-07-22T07:18:18;101860.19;;;18.57;100.00
48077;BME280;33854;57.708;12.008;2022-07-22T07:20:43;101847.66;;;18.45;100.00
48077;BME280;33854;57.708;12.008;2022-07-22T07:23:09;101836.84;;;18.36;100.00
48077;BME280;33854;57.708;12.008;2022-07-22T07:25:34;101827.13;;;18.36;100.00
48077;BME280;33854;57.708;12.008;2022-07-22T07:28:00;101838.31;;;18.40;100.00
48077;BME280;33854;57.708;12.008;2022-07-22T07:30:25;101832.03;;;18.42;100.00
48077;BME280;33854;57.708;12.008;2022-07-22T07:32:50;101819.94;;;18.38;100.00
48077;BME280;33854;57.708;12.008;2022-07-22T07:35:16;101828.53;;;18.42;100.00
48077;BME280;33854;57.708;12.008;2022-07-22T07:37:41;101832.66;;;18.46;100.00
48077;BME280;33854;57.708;12.008;2022-07-22T07:40:07;101813.41;;;18.44;100.00
48077;BME280;33854;57.708;12.008;2022-07-22T07:42:33;101824.94;;;18.57;100.00
48077;BME280;33854;57.708;12.008;2022-07-22T07:44:59;101823.09;;;18.59;100.00
48077;BME280;33854;57.708;12.008;2022-07-22T07:47:24;101803.59;;;18.46;100.00
48077;BME280;33854;57.708;12.008;2022-07-22T07:49:50;101808.03;;;18.45;100.00
48077;BME280;33854;57.708;12.008;2022-07-22T07:52:16;101806.75;;;18.52;100.00
48077;BME280;33854;57.708;12.008;2022-07-22T07:54:42;101796.66;;;18.59;100.00
48077;BME280;33854;57.708;12.008;2022-07-22T07:57:09;101795.59;;;18.61;100.00
48077;BME280;33854;57.708;12.008;2022-07-22T07:59:36;101802.50;;;18.64;100.00
48077;BME280;33854;57.708;12.008;2022-07-22T08:02:02;101801.09;;;18.58;100.00
48077;BME280;33854;57.708;12.008;2022-07-22T08:04:28;101794.56;;;18.50;100.00
48077;BME280;33854;57.708;12.008;2022-07-22T08:06:53;101795.31;;;18.52;100.00
48077;BME280;33854;57.708;12.008;2022-07-22T08:09:19;101791.94;;;18.50;100.00
48077;BME280;33854;57.708;12.008;2022-07-22T08:11:44;101787.38;;;18.38;100.00
48077;BME280;33854;57.708;12.008;2022-07-22T08:14:10;101806.75;;;18.52;100.00
48077;BME280;33854;57.708;12.008;2022-07-22T08:16:36;101792.38;;;18.42;100.00
48077;BME280;33854;57.708;12.008;2022-07-22T08:19:01;101804.19;;;18.65;100.00
48077;BME280;33854;57.708;12.008;2022-07-22T08:21:27;101802.59;;;18.76;100.00
48077;BME280;33854;57.708;12.008;2022-07-22T08:23:52;101810.97;;;18.83;100.00
48077;BME280;33854;57.708;12.008;2022-07-22T08:26:18;101801.50;;;18.93;100.00
48077;BME280;33854;57.708;12.008;2022-07-22T08:28:43;101804.34;;;18.90;100.00
48077;BME280;33854;57.708;12.008;2022-07-22T08:31:09;101796.63;;;18.73;100.00
48077;BME280;33854;57.708;12.008;2022-07-22T08:33:34;101799.56;;;18.54;100.00
48077;BME280;33854;57.708;12.008;2022-07-22T08:36:00;101792.69;;;18.52;100.00
48077;BME280;33854;57.708;12.008;2022-07-22T08:38:26;101800.56;;;18.38;100.00
48077;BME280;33854;57.708;12.008;2022-07-22T08:40:54;101804.44;;;18.46;100.00
48077;BME280;33854;57.708;12.008;2022-07-22T08:43:20;101787.56;;;18.35;100.00
48077;BME280;33854;57.708;12.008;2022-07-22T08:45:45;101799.16;;;18.32;100.00
48077;BME280;33854;57.708;12.008;2022-07-22T08:48:11;101806.72;;;18.38;100.00
48077;BME280;33854;57.708;12.008;2022-07-22T08:50:37;101802.66;;;18.33;100.00
48077;BME280;33854;57.708;12.008;2022-07-22T08:53:02;101806.03;;;18.20;100.00
48077;BME280;33854;57.708;12.008;2022-07-22T08:55:28;101797.75;;;18.27;100.00
48077;BME280;33854;57.708;12.008;2022-07-22T08:57:53;101804.44;;;18.32;100.00
48077;BME280;33854;57.708;12.008;2022-07-22T09:00:21;101801.13;;;18.29;100.00
48077;BME280;33854;57.708;12.008;2022-07-22T09:02:47;101794.75;;;18.33;100.00
48077;BME280;33854;57.708;12.008;2022-07-22T09:05:14;101806.06;;;18.35;100.00
48077;BME280;33854;57.708;12.008;2022-07-22T09:07:42;101805.97;;;18.36;100.00
48077;BME280;33854;57.708;12.008;2022-07-22T09:10:10;101794.53;;;18.21;100.00
48077;BME280;33854;57.708;12.008;2022-07-22T09:12:56;101796.22;;;18.22;100.00
48077;BME280;33854;57.708;12.008;2022-07-22T09:15:32;101793.75;;;18.05;100.00
48077;BME280;33854;57.708;12.008;2022-07-22T09:17:59;101802.16;;;17.98;100.00
48077;BME280;33854;57.708;12.008;2022-07-22T09:20:25;101794.41;;;17.95;100.00
48077;BME280;33854;57.708;12.008;2022-07-22T09:22:52;101789.06;;;17.96;100.00
48077;BME280;33854;57.708;12.008;2022-07-22T09:25:35;101802.53;;;18.06;100.00
48077;BME280;33854;57.708;12.008;2022-07-22T09:30:38;101811.03;;;18.11;100.00
48077;BME280;33854;57.708;12.008;2022-07-22T09:33:04;101802.91;;;18.00;100.00
48077;BME280;33854;57.708;12.008;2022-07-22T09:35:30;101816.59;;;18.06;100.00
48077;BME280;33854;57.708;12.008;2022-07-22T09:38:06;101818.09;;;17.96;100.00
48077;BME280;33854;57.708;12.008;2022-07-22T09:40:37;101822.94;;;17.74;100.00
48077;BME280;33854;57.708;12.008;2022-07-22T09:43:05;101835.88;;;17.79;100.00
48077;BME280;33854;57.708;12.008;2022-07-22T09:45:32;101825.69;;;17.57;100.00
48077;BME280;33854;57.708;12.008;2022-07-22T09:48:00;101831.94;;;17.40;100.00
48077;BME280;33854;57.708;12.008;2022-07-22T09:50:34;101850.22;;;17.43;100.00
48077;BME280;33854;57.708;12.008;2022-07-22T09:53:00;101867.59;;;17.47;100.00
48077;BME280;33854;57.708;12.008;2022-07-22T09:55:28;101878.66;;;17.54;100.00
48077;BME280;33854;57.708;12.008;2022-07-22T09:57:55;101880.22;;;17.58;100.00
48077;BME280;33854;57.708;12.008;2022-07-22T10:00:24;101893.56;;;17.71;100.00
48077;BME280;33854;57.708;12.008;2022-07-22T10:03:00;101892.19;;;17.79;100.00
48077;BME280;33854;57.708;12.008;2022-07-22T10:05:29;101889.16;;;17.85;100.00
48077;BME280;33854;57.708;12.008;2022-07-22T10:07:56;101887.53;;;17.98;100.00
48077;BME280;33854;57.708;12.008;2022-07-22T10:10:24;101890.50;;;18.08;100.00
48077;BME280;33854;57.708;12.008;2022-07-22T10:12:54;101903.44;;;18.27;100.00
48077;BME280;33854;57.708;12.008;2022-07-22T10:15:20;101896.75;;;18.35;100.00
48077;BME280;33854;57.708;12.008;2022-07-22T10:17:49;101886.47;;;18.31;100.00
48077;BME280;33854;57.708;12.008;2022-07-22T10:20:21;101886.94;;;18.37;100.00
48077;BME280;33854;57.708;12.008;2022-07-22T10:22:56;101895.78;;;18.52;100.00
48077;BME280;33854;57.708;12.008;2022-07-22T10:25:24;101896.59;;;18.38;100.00
48077;BME280;33854;57.708;12.008;2022-07-22T10:28:04;101884.59;;;18.33;100.00
48077;BME280;33854;57.708;12.008;2022-07-22T10:30:31;101872.97;;;18.35;100.00
48077;BME280;33854;57.708;12.008;2022-07-22T10:33:11;101870.88;;;18.56;100.00
48077;BME280;33854;57.708;12.008;2022-07-22T10:35:51;101872.28;;;18.61;100.00
48077;BME280;33854;57.708;12.008;2022-07-22T10:38:17;101871.97;;;18.80;100.00
48077;BME280;33854;57.708;12.008;2022-07-22T10:40:59;101856.72;;;18.71;100.00
48077;BME280;33854;57.708;12.008;2022-07-22T10:45:55;101861.41;;;18.66;100.00
48077;BME280;33854;57.708;12.008;2022-07-22T10:49:06;101856.41;;;18.75;100.00
48077;BME280;33854;57.708;12.008;2022-07-22T10:51:19;101857.44;;;18.87;100.00
48077;BME280;33854;57.708;12.008;2022-07-22T10:53:56;101846.28;;;18.96;100.00
48077;BME280;33854;57.708;12.008;2022-07-22T10:56:30;101838.53;;;18.93;100.00
48077;BME280;33854;57.708;12.008;2022-07-22T10:59:15;101848.56;;;18.88;100.00
48077;BME280;33854;57.708;12.008;2022-07-22T11:01:44;101843.00;;;18.78;100.00
48077;BME280;33854;57.708;12.008;2022-07-22T11:04:17;101849.31;;;18.90;100.00
48077;BME280;33854;57.708;12.008;2022-07-22T11:06:48;101844.50;;;18.97;100.00
48077;BME280;33854;57.708;12.008;2022-07-22T11:09:16;101849.38;;;19.03;100.00
48077;BME280;33854;57.708;12.008;2022-07-22T11:16:56;101824.16;;;18.97;100.00
48077;BME280;33854;57.708;12.008;2022-07-22T11:19:29;101837.97;;;19.02;100.00
48077;BME280;33854;57.708;12.008;2022-07-22T11:22:09;101844.38;;;18.98;100.00
48077;BME280;33854;57.708;12.008;2022-07-22T11:24:36;101850.78;;;18.94;100.00
48077;BME280;33854;57.708;12.008;2022-07-22T11:27:02;101838.63;;;18.77;100.00
48077;BME280;33854;57.708;12.008;2022-07-22T11:32:03;101855.53;;;18.89;100.00
48077;BME280;33854;57.708;12.008;2022-07-22T11:34:29;101852.88;;;18.89;100.00
48077;BME280;33854;57.708;12.008;2022-07-22T11:36:56;101850.41;;;19.00;100.00
48077;BME280;33854;57.708;12.008;2022-07-22T11:39:23;101843.16;;;18.90;100.00
48077;BME280;33854;57.708;12.008;2022-07-22T11:41:51;101851.13;;;18.61;100.00
48077;BME280;33854;57.708;12.008;2022-07-22T11:44:21;101846.22;;;18.55;100.00
48077;BME280;33854;57.708;12.008;2022-07-22T11:46:47;101834.56;;;18.44;100.00
48077;BME280;33854;57.708;12.008;2022-07-22T11:49:15;101844.59;;;18.67;100.00
48077;BME280;33854;57.708;12.008;2022-07-22T11:51:41;101848.97;;;18.68;100.00
48077;BME280;33854;57.708;12.008;2022-07-22T11:54:06;101843.75;;;18.52;100.00
48077;BME280;33854;57.708;12.008;2022-07-22T11:56:32;101856.13;;;18.66;100.00
48077;BME280;33854;57.708;12.008;2022-07-22T11:58:59;101841.59;;;18.59;100.00
48077;BME280;33854;57.708;12.008;2022-07-22T12:01:28;101847.97;;;18.83;100.00
48077;BME280;33854;57.708;12.008;2022-07-22T12:03:59;101857.06;;;18.93;100.00
48077;BME280;33854;57.708;12.008;2022-07-22T12:06:26;101854.06;;;19.12;100.00
48077;BME280;33854;57.708;12.008;2022-07-22T12:08:54;101851.16;;;19.16;100.00
48077;BME280;33854;57.708;12.008;2022-07-22T12:11:22;101848.59;;;19.15;100.00
48077;BME280;33854;57.708;12.008;2022-07-22T12:13:50;101856.44;;;19.16;100.00
48077;BME280;33854;57.708;12.008;2022-07-22T12:16:26;101860.94;;;19.28;100.00
48077;BME280;33854;57.708;12.008;2022-07-22T12:19:03;101859.63;;;19.21;100.00
48077;BME280;33854;57.708;12.008;2022-07-22T12:21:31;101862.47;;;19.18;100.00
48077;BME280;33854;57.708;12.008;2022-07-22T12:24:05;101858.31;;;19.14;100.00
48077;BME280;33854;57.708;12.008;2022-07-22T12:26:44;101856.34;;;19.18;100.00
48077;BME280;33854;57.708;12.008;2022-07-22T12:29:19;101861.34;;;19.22;100.00
48077;BME280;33854;57.708;12.008;2022-07-22T12:31:46;101864.06;;;19.21;100.00
48077;BME280;33854;57.708;12.008;2022-07-22T12:34:13;101858.25;;;19.16;100.00
48077;BME280;33854;57.708;12.008;2022-07-22T12:36:43;101848.16;;;19.08;100.00
48077;BME280;33854;57.708;12.008;2022-07-22T12:39:17;101839.09;;;18.98;100.00
48077;BME280;33854;57.708;12.008;2022-07-22T12:41:48;101839.06;;;19.12;100.00
48077;BME280;33854;57.708;12.008;2022-07-22T12:44:19;101858.19;;;19.30;100.00